createdAt,value
2018-06-23T00:00:45.462Z,94.80
2018-06-23T00:03:13.054Z,94.40
2018-06-23T00:05:40.680Z,94.00
2018-06-23T00:08:08.822Z,93.50
2018-06-23T00:10:36.464Z,93.20
2018-06-23T00:13:04.336Z,93.20
2018-06-23T00:15:31.955Z,93.40
2018-06-23T00:17:59.612Z,93.60
2018-06-23T00:20:27.238Z,93.90
2018-06-23T00:22:54.814Z,93.80
2018-06-23T00:25:28.161Z,93.60
2018-06-23T00:27:56.033Z,93.80
2018-06-23T00:30:23.693Z,93.80
2018-06-23T00:32:51.633Z,93.90
2018-06-23T00:35:19.313Z,93.80
2018-06-23T00:37:47.129Z,93.90
2018-06-23T00:40:14.783Z,94.00
2018-06-23T00:42:42.385Z,93.90
2018-06-23T00:45:10.189Z,93.90
2018-06-23T00:47:37.885Z,94.10
2018-06-23T00:50:05.552Z,94.40
2018-06-23T00:52:33.163Z,94.70
2018-06-23T00:55:01.714Z,94.90
2018-06-23T00:57:29.345Z,95.00
2018-06-23T00:59:56.886Z,95.20
2018-06-23T01:02:24.613Z,95.40
2018-06-23T01:07:19.813Z,96.00
2018-06-23T01:09:47.456Z,96.00
2018-06-23T01:12:15.062Z,96.00
2018-06-23T01:14:42.628Z,96.10
2018-06-23T01:17:10.971Z,96.20
2018-06-23T01:19:38.522Z,96.20
2018-06-23T01:22:06.183Z,96.20
2018-06-23T01:24:33.826Z,96.30
2018-06-23T01:27:01.496Z,96.80
2018-06-23T01:29:29.096Z,96.60
2018-06-23T01:31:56.706Z,96.60
2018-06-23T01:34:24.310Z,96.60
2018-06-23T01:36:52.232Z,96.60
2018-06-23T01:39:19.981Z,96.80
2018-06-23T01:41:47.738Z,96.80
2018-06-23T01:44:15.606Z,97.00
2018-06-23T01:46:43.509Z,97.20
2018-06-23T01:49:11.340Z,97.50
2018-06-23T01:51:39.052Z,97.60
2018-06-23T01:54:06.954Z,97.90
2018-06-23T01:56:34.542Z,98.10
2018-06-23T01:59:03.276Z,98.30
2018-06-23T02:01:31.096Z,98.30
2018-06-23T02:03:58.766Z,98.60
2018-06-23T02:06:26.360Z,99.30
2018-06-23T02:08:54.002Z,99.60
2018-06-23T02:11:21.808Z,99.90
2018-06-23T02:13:54.021Z,99.90
2018-06-23T02:16:27.424Z,99.90
2018-06-23T02:20:04.006Z,99.90
2018-06-23T02:22:37.496Z,99.90
2018-06-23T02:25:10.867Z,99.90
2018-06-23T02:27:44.203Z,99.90
2018-06-23T02:30:17.625Z,99.90
2018-06-23T02:32:47.337Z,99.90
2018-06-23T02:35:14.889Z,99.90
2018-06-23T02:37:42.492Z,99.90
2018-06-23T02:40:10.256Z,99.90
2018-06-23T02:42:37.922Z,99.90
2018-06-23T02:45:06.242Z,99.90
2018-06-23T02:47:33.800Z,99.90
2018-06-23T02:50:01.399Z,99.90
2018-06-23T02:52:30.364Z,99.90
2018-06-23T02:54:58.070Z,99.90
2018-06-23T02:57:25.657Z,99.90
2018-06-23T02:59:53.295Z,99.90
2018-06-23T03:02:21.019Z,99.90
2018-06-23T03:04:48.633Z,99.90
2018-06-23T03:07:16.533Z,99.90
2018-06-23T03:09:44.106Z,99.90
2018-06-23T03:12:11.687Z,99.90
2018-06-23T03:14:39.255Z,99.90
2018-06-23T03:17:11.481Z,99.90
2018-06-23T03:19:39.059Z,99.90
2018-06-23T03:22:06.638Z,99.90
2018-06-23T03:24:34.241Z,99.90
2018-06-23T03:27:01.912Z,99.90
2018-06-23T03:29:29.517Z,99.90
2018-06-23T03:31:57.106Z,99.90
2018-06-23T03:34:24.718Z,99.90
2018-06-23T03:36:52.278Z,99.90
2018-06-23T03:39:19.830Z,99.90
2018-06-23T03:41:47.609Z,99.90
2018-06-23T03:44:15.187Z,99.90
2018-06-23T03:46:42.751Z,99.90
2018-06-23T03:49:10.322Z,99.90
2018-06-23T03:51:37.922Z,99.90
2018-06-23T03:54:05.537Z,99.90
2018-06-23T03:56:33.232Z,99.90
2018-06-23T03:59:00.811Z,99.90
2018-06-23T04:01:28.384Z,99.90
2018-06-23T04:03:56.109Z,99.90
2018-06-23T04:06:23.709Z,99.90
2018-06-23T04:08:51.297Z,99.90
2018-06-23T04:11:18.921Z,99.90
2018-06-23T04:13:46.561Z,99.90
2018-06-23T04:16:14.105Z,99.90
2018-06-23T04:18:50.138Z,99.90
2018-06-23T04:21:17.926Z,99.90
2018-06-23T04:23:45.519Z,99.90
2018-06-23T04:26:13.194Z,99.90
2018-06-23T04:28:40.831Z,99.90
2018-06-23T04:31:08.651Z,99.90
2018-06-23T04:33:36.370Z,99.90
2018-06-23T04:36:03.946Z,99.90
2018-06-23T04:38:31.504Z,99.90
2018-06-23T04:40:59.166Z,99.90
2018-06-23T04:43:26.741Z,99.90
2018-06-23T04:45:54.296Z,99.90
2018-06-23T04:48:21.920Z,99.90
2018-06-23T04:50:49.560Z,99.90
2018-06-23T04:53:17.120Z,99.90
2018-06-23T04:55:44.860Z,99.90
2018-06-23T04:58:12.479Z,99.90
2018-06-23T05:00:40.023Z,99.90
2018-06-23T05:03:07.620Z,99.90
2018-06-23T05:05:35.254Z,99.90
2018-06-23T05:08:02.923Z,99.90
2018-06-23T05:10:30.558Z,99.90
2018-06-23T05:12:58.164Z,99.90
2018-06-23T05:15:25.742Z,99.90
2018-06-23T05:17:53.356Z,99.90
2018-06-23T05:20:21.051Z,99.90
2018-06-23T05:22:48.492Z,99.90
2018-06-23T05:25:16.114Z,99.90
2018-06-23T05:27:43.804Z,99.90
2018-06-23T05:30:11.429Z,99.90
2018-06-23T05:32:39.074Z,99.90
2018-06-23T05:35:06.749Z,99.90
2018-06-23T05:37:34.432Z,99.90
2018-06-23T05:40:02.027Z,99.90
2018-06-23T05:42:29.667Z,99.90
2018-06-23T05:44:57.271Z,99.90
2018-06-23T05:47:24.891Z,99.90
2018-06-23T05:49:52.773Z,99.90
2018-06-23T05:52:20.799Z,99.90
2018-06-23T05:54:48.431Z,99.90
2018-06-23T05:57:16.011Z,99.90
2018-06-23T05:59:43.564Z,99.90
2018-06-23T06:02:11.770Z,99.90
2018-06-23T06:04:39.384Z,99.90
2018-06-23T06:07:07.021Z,99.90
2018-06-23T06:09:34.590Z,99.50
2018-06-23T06:12:02.297Z,98.40
2018-06-23T06:14:29.859Z,98.30
2018-06-23T06:17:30.241Z,98.10
2018-06-23T06:19:59.076Z,97.10
2018-06-23T06:24:56.701Z,95.30
2018-06-23T06:27:24.284Z,94.90
2018-06-23T06:29:52.744Z,93.60
2018-06-23T06:32:20.392Z,92.10
2018-06-23T06:34:48.142Z,91.50
2018-06-23T06:37:15.715Z,91.40
2018-06-23T06:39:43.811Z,90.90
2018-06-23T06:42:11.509Z,90.60
2018-06-23T06:44:39.123Z,89.30
2018-06-23T06:47:06.865Z,88.50
2018-06-23T06:49:34.465Z,86.90
2018-06-23T06:52:02.161Z,87.00
2018-06-23T06:54:29.771Z,84.80
2018-06-23T06:56:57.329Z,82.60
2018-06-23T06:59:24.876Z,78.70
2018-06-23T07:01:52.452Z,75.90
2018-06-23T07:04:20.307Z,72.50
2018-06-23T07:06:48.369Z,69.80
2018-06-23T07:09:16.004Z,64.50
2018-06-23T07:11:44.197Z,60.30
2018-06-23T07:14:11.805Z,55.80
2018-06-23T07:16:40.265Z,51.20
2018-06-23T07:19:08.149Z,50.70
2018-06-23T07:21:35.719Z,48.60
2018-06-23T07:24:04.643Z,48.30
2018-06-23T07:26:32.826Z,46.80
2018-06-23T07:31:27.989Z,41.50
2018-06-23T07:33:55.571Z,39.50
2018-06-23T07:36:23.262Z,39.20
2018-06-23T07:38:50.885Z,38.10
2018-06-23T07:41:18.516Z,35.70
2018-06-23T07:43:46.576Z,35.20
2018-06-23T07:46:14.723Z,35.00
2018-06-23T07:51:10.056Z,35.00
2018-06-23T07:53:37.821Z,34.40
2018-06-23T07:56:05.818Z,33.00
2018-06-23T07:58:33.399Z,31.00
2018-06-23T08:01:01.350Z,29.70
2018-06-23T08:03:28.930Z,30.00
2018-06-23T08:05:56.674Z,30.10
2018-06-23T08:08:24.278Z,30.00
2018-06-23T08:10:51.856Z,30.00
2018-06-23T08:13:19.497Z,29.60
2018-06-23T08:15:47.146Z,29.40
2018-06-23T08:18:14.755Z,28.60
2018-06-23T08:20:42.349Z,27.50
2018-06-23T08:23:09.956Z,26.20
2018-06-23T08:25:37.691Z,25.70
2018-06-23T08:28:05.612Z,26.00
2018-06-23T08:30:34.584Z,26.80
2018-06-23T08:33:04.543Z,28.00
2018-06-23T08:35:32.192Z,29.80
2018-06-23T08:37:59.835Z,31.60
2018-06-23T08:40:27.442Z,32.30
2018-06-23T08:42:55.082Z,33.90
2018-06-23T08:45:22.695Z,34.90
2018-06-23T08:47:50.272Z,36.00
2018-06-23T08:50:17.845Z,36.20
2018-06-23T08:52:45.462Z,36.00
2018-06-23T08:55:13.235Z,33.60
2018-06-23T08:57:40.946Z,32.00
2018-06-23T09:00:08.994Z,31.40
2018-06-23T09:02:36.707Z,32.90
2018-06-23T09:05:04.391Z,34.40
2018-06-23T09:07:32.049Z,36.70
2018-06-23T09:09:59.682Z,36.90
2018-06-23T09:12:27.428Z,37.90
2018-06-23T09:14:55.290Z,38.30
2018-06-23T09:17:22.857Z,39.00
2018-06-23T09:19:50.409Z,40.40
2018-06-23T09:22:18.111Z,40.70
2018-06-23T09:24:45.694Z,40.40
2018-06-23T09:27:13.320Z,40.60
2018-06-23T09:29:40.891Z,40.10
2018-06-23T09:32:08.769Z,40.00
2018-06-23T09:34:36.453Z,39.90
2018-06-23T09:37:04.233Z,40.00
2018-06-23T09:39:31.797Z,40.80
2018-06-23T09:44:27.021Z,40.50
2018-06-23T09:46:54.827Z,40.40
2018-06-23T09:49:22.743Z,41.90
2018-06-23T09:51:50.369Z,43.30
2018-06-23T09:54:18.014Z,42.80
2018-06-23T09:56:45.769Z,41.10
2018-06-23T09:59:13.409Z,40.80
2018-06-23T10:01:41.019Z,41.50
2018-06-23T10:04:08.649Z,42.40
2018-06-23T10:06:36.271Z,43.40
2018-06-23T10:09:06.845Z,42.70
2018-06-23T10:11:34.688Z,42.70
2018-06-23T10:14:02.893Z,42.70
2018-06-23T10:16:30.494Z,42.80
2018-06-23T10:18:58.128Z,42.80
2018-06-23T10:21:25.775Z,43.40
2018-06-23T10:23:53.435Z,43.60
2018-06-23T10:26:21.014Z,43.90
2018-06-23T10:28:48.827Z,44.40
2018-06-23T10:31:16.549Z,44.70
2018-06-23T10:33:44.372Z,46.10
2018-06-23T10:36:12.212Z,45.90
2018-06-23T10:38:40.095Z,46.00
2018-06-23T10:41:07.774Z,46.20
2018-06-23T10:43:35.487Z,46.80
2018-06-23T10:48:30.739Z,47.80
2018-06-23T10:50:58.376Z,48.40
2018-06-23T10:53:26.303Z,48.20
2018-06-23T10:55:54.265Z,48.50
2018-06-23T10:58:21.967Z,48.70
2018-06-23T11:00:49.569Z,49.00
2018-06-23T11:03:17.134Z,50.10
2018-06-23T11:05:44.938Z,49.40
2018-06-23T11:08:12.549Z,49.30
2018-06-23T11:10:40.204Z,49.80
2018-06-23T11:13:07.826Z,50.30
2018-06-23T11:15:35.376Z,50.70
2018-06-23T11:18:03.186Z,51.00
2018-06-23T11:20:30.837Z,51.40
2018-06-23T11:22:58.458Z,52.00
2018-06-23T11:25:26.154Z,52.10
2018-06-23T11:27:54.014Z,52.60
2018-06-23T11:30:21.614Z,52.50
2018-06-23T11:32:49.460Z,51.90
2018-06-23T11:35:17.093Z,51.40
2018-06-23T11:37:44.706Z,51.60
2018-06-23T11:40:12.315Z,51.60
2018-06-23T11:42:40.002Z,52.30
2018-06-23T11:45:07.616Z,51.60
2018-06-23T11:47:35.202Z,52.10
2018-06-23T11:50:02.939Z,51.60
2018-06-23T11:52:30.535Z,52.10
2018-06-23T11:54:58.097Z,52.00
2018-06-23T11:57:25.753Z,51.90
2018-06-23T11:59:53.348Z,52.60
2018-06-23T12:02:20.942Z,51.70
2018-06-23T12:04:48.526Z,51.40
2018-06-23T12:07:16.112Z,52.00
2018-06-23T12:09:43.710Z,51.00
2018-06-23T12:12:11.417Z,51.10
2018-06-23T12:14:38.993Z,50.90
2018-06-23T12:17:06.742Z,51.00
2018-06-23T12:19:34.364Z,51.20
2018-06-23T12:24:29.636Z,50.80
2018-06-23T12:26:57.346Z,50.50
2018-06-23T12:29:25.009Z,50.70
2018-06-23T12:31:52.598Z,49.70
2018-06-23T12:34:20.214Z,50.00
2018-06-23T12:36:47.816Z,50.70
2018-06-23T12:39:15.417Z,51.10
2018-06-23T12:41:43.101Z,52.20
2018-06-23T12:44:10.730Z,50.50
2018-06-23T12:46:38.748Z,51.00
2018-06-23T12:49:06.365Z,51.30
2018-06-23T12:51:34.165Z,51.30
2018-06-23T12:54:01.766Z,52.20
2018-06-23T12:56:29.378Z,51.30
2018-06-23T12:58:57.045Z,51.40
2018-06-23T13:01:24.654Z,51.70
2018-06-23T13:03:52.288Z,52.50
2018-06-23T13:06:20.026Z,53.40
2018-06-23T13:08:47.634Z,54.40
2018-06-23T13:11:15.246Z,54.20
2018-06-23T13:13:42.854Z,51.20
2018-06-23T13:16:10.754Z,50.30
2018-06-23T13:18:38.574Z,48.70
2018-06-23T13:21:06.166Z,47.20
2018-06-23T13:23:33.778Z,46.20
2018-06-23T13:26:01.371Z,47.70
2018-06-23T13:28:29.018Z,48.00
2018-06-23T13:30:56.698Z,49.40
2018-06-23T13:33:24.332Z,48.60
2018-06-23T13:38:19.513Z,50.10
2018-06-23T13:43:14.631Z,50.00
2018-06-23T13:45:42.222Z,49.90
2018-06-23T13:48:09.842Z,49.60
2018-06-23T13:50:37.444Z,49.40
2018-06-23T13:53:05.078Z,49.30
2018-06-23T13:55:32.764Z,49.30
2018-06-23T13:58:00.366Z,49.60
2018-06-23T14:00:28.018Z,49.40
2018-06-23T14:02:55.687Z,49.60
2018-06-23T14:05:23.422Z,49.00
2018-06-23T14:07:51.019Z,48.40
2018-06-23T14:10:18.636Z,49.40
2018-06-23T14:12:46.258Z,48.50
2018-06-23T14:15:13.818Z,48.90
2018-06-23T14:17:41.495Z,49.00
2018-06-23T14:22:36.730Z,50.20
2018-06-23T14:25:04.392Z,50.50
2018-06-23T14:27:32.050Z,50.80
2018-06-23T14:32:27.260Z,51.70
2018-06-23T14:34:54.854Z,51.90
2018-06-23T14:37:22.455Z,52.30
2018-06-23T14:39:50.019Z,52.60
2018-06-23T14:42:17.634Z,53.10
2018-06-23T14:44:45.208Z,53.20
2018-06-23T14:49:40.431Z,53.60
2018-06-23T14:52:08.393Z,53.60
2018-06-23T14:54:36.563Z,53.30
2018-06-23T14:57:04.634Z,52.80
2018-06-23T14:59:32.234Z,52.80
2018-06-23T15:01:59.849Z,53.10
2018-06-23T15:04:27.494Z,53.40
2018-06-23T15:06:55.489Z,53.90
2018-06-23T15:09:34.788Z,53.90
2018-06-23T15:13:13.329Z,53.60
2018-06-23T15:15:40.933Z,52.80
2018-06-23T15:18:08.531Z,52.80
2018-06-23T15:20:36.199Z,53.40
2018-06-23T15:23:03.961Z,53.80
2018-06-23T15:25:31.782Z,54.20
2018-06-23T15:27:59.405Z,54.60
2018-06-23T15:30:27.049Z,54.60
2018-06-23T15:32:55.753Z,54.80
2018-06-23T15:35:23.360Z,55.00
2018-06-23T15:37:51.244Z,54.90
2018-06-23T15:40:18.838Z,55.20
2018-06-23T15:42:46.772Z,55.10
2018-06-23T15:47:42.150Z,55.20
2018-06-23T15:50:09.780Z,54.70
2018-06-23T15:52:37.587Z,55.00
2018-06-23T15:55:05.496Z,55.10
2018-06-23T15:57:33.050Z,55.10
2018-06-23T16:00:00.766Z,55.20
2018-06-23T16:02:28.769Z,55.40
2018-06-23T16:04:56.477Z,55.60
2018-06-23T16:07:24.130Z,55.90
2018-06-23T16:09:51.726Z,55.50
2018-06-23T16:12:19.325Z,55.90
2018-06-23T16:14:47.068Z,56.30
2018-06-23T16:17:14.642Z,56.80
2018-06-23T16:19:42.256Z,57.40
2018-06-23T16:22:10.412Z,56.70
2018-06-23T16:24:38.071Z,56.50
2018-06-23T16:27:05.636Z,56.70
2018-06-23T16:29:33.230Z,57.10
2018-06-23T16:32:00.794Z,57.30
2018-06-23T16:34:28.574Z,57.60
2018-06-23T16:36:56.141Z,58.10
2018-06-23T16:39:23.686Z,57.60
2018-06-23T16:41:51.243Z,57.90
2018-06-23T16:44:18.835Z,58.10
2018-06-23T16:46:46.508Z,58.30
2018-06-23T16:49:14.227Z,58.50
2018-06-23T16:51:41.906Z,58.60
2018-06-23T16:54:09.506Z,59.10
2018-06-23T16:56:37.320Z,58.50
2018-06-23T16:59:04.924Z,58.40
2018-06-23T17:01:32.470Z,58.20
2018-06-23T17:04:00.050Z,59.20
2018-06-23T17:06:27.714Z,58.30
2018-06-23T17:08:55.293Z,58.60
2018-06-23T17:11:22.915Z,58.90
2018-06-23T17:13:50.488Z,58.70
2018-06-23T17:16:18.104Z,58.90
2018-06-23T17:18:45.775Z,59.20
2018-06-23T17:21:13.448Z,59.30
2018-06-23T17:23:41.146Z,59.80
2018-06-23T17:26:08.792Z,59.80
2018-06-23T17:28:36.406Z,60.00
2018-06-23T17:31:04.016Z,60.00
2018-06-23T17:33:31.624Z,60.30
2018-06-23T17:35:59.226Z,60.50
2018-06-23T17:38:26.880Z,60.90
2018-06-23T17:40:54.518Z,61.40
2018-06-23T17:43:22.124Z,61.30
2018-06-23T17:45:49.826Z,60.50
2018-06-23T17:48:17.422Z,61.40
2018-06-23T17:50:45.083Z,62.00
2018-06-23T17:53:12.814Z,61.90
2018-06-23T17:55:40.410Z,62.80
2018-06-23T17:58:08.136Z,62.70
2018-06-23T18:00:35.723Z,62.90
2018-06-23T18:03:03.579Z,62.90
2018-06-23T18:05:31.174Z,62.80
2018-06-23T18:07:58.834Z,63.00
2018-06-23T18:10:26.530Z,63.20
2018-06-23T18:12:54.125Z,63.40
2018-06-23T18:15:21.760Z,63.70
2018-06-23T18:17:49.374Z,63.80
2018-06-23T18:20:16.976Z,64.10
2018-06-23T18:22:44.556Z,64.20
2018-06-23T18:25:12.134Z,64.50
2018-06-23T18:27:40.530Z,64.80
2018-06-23T18:30:08.168Z,64.90
2018-06-23T18:32:35.746Z,65.00
2018-06-23T18:35:03.420Z,64.90
2018-06-23T18:37:31.012Z,65.20
2018-06-23T18:39:58.836Z,65.20
2018-06-23T18:42:27.162Z,65.40
2018-06-23T18:44:54.772Z,65.70
2018-06-23T18:47:29.367Z,66.00
2018-06-23T18:49:57.133Z,66.30
2018-06-23T18:52:24.735Z,66.60
2018-06-23T18:54:52.393Z,66.90
2018-06-23T18:57:20.042Z,67.20
2018-06-23T18:59:47.701Z,67.50
2018-06-23T19:02:15.457Z,67.80
2018-06-23T19:04:43.220Z,68.30
2018-06-23T19:07:11.224Z,68.60
2018-06-23T19:09:38.934Z,69.00
2018-06-23T19:12:06.745Z,69.60
2018-06-23T19:14:34.818Z,69.80
2018-06-23T19:17:02.574Z,70.30
2018-06-23T19:19:30.205Z,70.80
2018-06-23T19:21:57.818Z,71.10
2018-06-23T19:24:25.513Z,71.40
2018-06-23T19:26:53.216Z,71.50
2018-06-23T19:29:20.922Z,71.70
2018-06-23T19:31:48.669Z,71.90
2018-06-23T19:34:16.400Z,72.50
2018-06-23T19:36:44.252Z,72.60
2018-06-23T19:39:11.928Z,73.20
2018-06-23T19:41:39.612Z,73.60
2018-06-23T19:44:07.530Z,73.90
2018-06-23T19:46:35.631Z,74.70
2018-06-23T19:49:03.281Z,75.20
2018-06-23T19:51:30.950Z,75.50
2018-06-23T19:53:58.804Z,76.10
2018-06-23T19:56:26.428Z,76.70
2018-06-23T20:01:21.846Z,77.80
2018-06-23T20:03:49.654Z,78.20
2018-06-23T20:06:17.274Z,78.80
2018-06-23T20:08:44.899Z,79.70
2018-06-23T20:11:12.535Z,81.10
2018-06-23T20:13:40.105Z,81.20
2018-06-23T20:16:07.747Z,82.00
2018-06-23T20:18:35.326Z,82.80
2018-06-23T20:21:02.972Z,83.60
2018-06-23T20:23:30.702Z,84.50
2018-06-23T20:25:58.260Z,85.30
2018-06-23T20:28:25.859Z,86.20
2018-06-23T20:30:53.490Z,86.60
2018-06-23T20:33:21.060Z,87.50
2018-06-23T20:35:48.627Z,88.40
2018-06-23T20:38:16.416Z,89.40
2018-06-23T20:40:44.058Z,90.10
2018-06-23T20:43:11.709Z,90.60
2018-06-23T20:45:39.324Z,91.00
2018-06-23T20:48:07.747Z,91.70
2018-06-23T20:50:35.582Z,92.20
2018-06-23T20:53:03.257Z,93.00
2018-06-23T20:55:30.850Z,93.50
2018-06-23T20:57:58.419Z,94.10
2018-06-23T21:00:26.097Z,94.70
2018-06-23T21:02:53.726Z,95.40
2018-06-23T21:05:21.344Z,96.00
2018-06-23T21:07:48.978Z,96.70
2018-06-23T21:10:28.300Z,97.40
2018-06-23T21:12:55.934Z,97.90
2018-06-23T21:15:23.501Z,98.50
2018-06-23T21:20:18.693Z,99.90
2018-06-23T21:22:46.405Z,99.90
2018-06-23T21:25:14.015Z,99.90
2018-06-23T21:27:41.706Z,99.90
2018-06-23T21:30:09.416Z,99.90
2018-06-23T21:32:38.161Z,99.90
2018-06-23T21:35:05.807Z,99.90
2018-06-23T21:37:33.466Z,99.90
2018-06-23T21:40:01.120Z,99.90
2018-06-23T21:42:29.223Z,99.90
2018-06-23T21:44:56.816Z,99.90
2018-06-23T21:47:24.760Z,99.90
2018-06-23T21:49:52.608Z,99.90
2018-06-23T21:52:20.362Z,99.90
2018-06-23T21:54:47.989Z,99.90
2018-06-23T21:57:15.737Z,99.90
2018-06-23T21:59:43.389Z,99.90
2018-06-23T22:02:10.977Z,99.90
2018-06-23T22:04:38.660Z,99.90
2018-06-23T22:07:06.376Z,99.90
2018-06-23T22:09:34.033Z,99.90
2018-06-23T22:12:01.668Z,99.90
2018-06-23T22:14:29.393Z,99.90
2018-06-23T22:16:57.033Z,99.90
2018-06-23T22:19:24.690Z,99.90
2018-06-23T22:21:52.302Z,99.90
2018-06-23T22:24:19.937Z,99.90
2018-06-23T22:26:47.579Z,99.90
2018-06-23T22:29:15.309Z,99.90
2018-06-23T22:31:42.929Z,99.90
2018-06-23T22:34:10.617Z,99.90
2018-06-23T22:36:38.272Z,99.90
2018-06-23T22:39:08.030Z,99.90
2018-06-23T22:41:35.669Z,99.90
2018-06-23T22:44:03.329Z,99.90
2018-06-23T22:46:30.936Z,99.90
2018-06-23T22:48:58.606Z,99.90
2018-06-23T22:51:26.193Z,99.90
2018-06-23T22:53:53.796Z,99.90
2018-06-23T22:56:21.449Z,99.90
2018-06-23T22:58:49.141Z,99.90
2018-06-23T23:01:16.751Z,99.90
2018-06-23T23:03:44.413Z,99.90
2018-06-23T23:08:39.573Z,99.90
2018-06-23T23:11:07.288Z,99.90
2018-06-23T23:13:34.873Z,99.90
2018-06-23T23:16:02.693Z,99.90
2018-06-23T23:21:04.986Z,99.90
2018-06-23T23:23:32.598Z,99.90
2018-06-23T23:26:00.278Z,99.90
2018-06-23T23:28:27.928Z,99.90
2018-06-23T23:30:55.848Z,99.90
2018-06-23T23:33:24.386Z,99.90
2018-06-23T23:35:52.084Z,99.90
2018-06-23T23:38:19.711Z,99.90
2018-06-23T23:40:47.338Z,99.90
2018-06-23T23:43:14.970Z,99.90
2018-06-23T23:45:42.531Z,99.90
2018-06-23T23:48:10.178Z,99.90
2018-06-23T23:50:37.766Z,99.90
2018-06-23T23:53:05.404Z,99.90
2018-06-23T23:55:33.013Z,99.90
2018-06-23T23:58:00.711Z,99.90
